Data for 02/06/2008

Time Sea-Level Adjusted Pressure Absolute Pressure Temperature Relative Humidity Dew Point   
(mb) (inHg) (mb) (inHg) (C) (F) (%) (C) (F)
00:05 1009 29.8 838 24.75 -4.6 23.8 59 -11.4 11.5
00:10 1009 29.8 838 24.75 -4.5 23.9 59 -11.4 11.5
00:15 1009 29.8 838 24.75 -4.3 24.2 58 -11.4 11.5
00:20 1009 29.8 838 24.75 -4.3 24.2 59 -11.2 11.8
00:25 1009 29.8 838 24.75 -4.6 23.8 61 -11.1 12
00:30 1009 29.8 838 24.75 -4.6 23.7 60 -11.3 11.7
00:35 1009 29.8 838 24.75 -4.7 23.6 62 -10.9 12.3
00:40 1009 29.8 838 24.75 -4.7 23.6 62 -11 12.2
00:45 1009 29.8 838 24.75 -4.7 23.6 62 -10.9 12.4
00:50 1009 29.8 838 24.75 -4.7 23.6 63 -10.8 12.6
00:55 1009 29.8 838 24.75 -4.6 23.7 61 -11 12.2
01:00 1009 29.8 838 24.75 -4.6 23.7 62 -10.9 12.4
01:05 1009 29.8 838 24.75 -4.7 23.5 64 -10.6 12.9
01:10 1009 29.8 838 24.75 -4.8 23.3 64 -10.6 13
01:15 1009 29.8 838 24.75 -4.8 23.3 65 -10.5 13.2
01:20 1009 29.8 838 24.75 -5 23 66 -10.3 13.4
01:25 1009 29.8 838 24.75 -5.1 22.8 65 -10.6 12.9
01:30 1009 29.8 838 24.75 -4.8 23.4 62 -10.9 12.4
01:35 1009 29.8 838 24.75 -4.6 23.7 62 -10.9 12.5
01:40 1009 29.8 838 24.75 -4.6 23.6 63 -10.6 12.8
01:45 1009 29.8 838 24.75 -4.7 23.6 63 -10.6 12.9
01:50 1009 29.8 838 24.75 -4.6 23.7 64 -10.3 13.4
01:55 1009 29.8 838 24.75 -4.6 23.7 65 -10.2 13.6
02:00 1009 29.8 838 24.75 -4.8 23.3 67 -10 14.1
02:05 1009 29.8 838 24.75 -5 23 68 -10.1 13.9
02:10 1009 29.8 838 24.75 -5.2 22.6 68 -10.2 13.7
02:15 1009 29.8 838 24.75 -5.3 22.5 70 -9.9 14.2
02:20 1009 29.8 838 24.75 -5.1 22.8 68 -10.2 13.7
02:25 1009 29.8 838 24.75 -5.1 22.8 67 -10.3 13.5
02:30 1009 29.8 838 24.75 -5.3 22.4 68 -10.2 13.6
02:35 1009 29.8 838 24.75 -5.4 22.4 70 -10.1 13.9
02:40 1009 29.8 838 24.75 -5.1 22.8 69 -10 14
02:45 1009 29.8 838 24.75 -5 23 67 -10.2 13.6
02:50 1009 29.8 838 24.75 -4.9 23.2 68 -9.9 14.2
02:55 1009 29.8 838 24.75 -4.9 23.2 73 -9 15.7
03:00 1009 29.8 839 24.78 -5.2 22.6 81 -8 17.5
03:05 1010 29.83 839 24.78 -5.5 22.1 82 -8.1 17.4
03:10 1010 29.83 839 24.78 -5.6 22 82 -8.2 17.2
03:15 1010 29.83 839 24.78 -5.5 22.1 85 -7.7 18.1
03:20 1010 29.83 839 24.78 -5.5 22.1 86 -7.5 18.5
03:25 1010 29.83 839 24.78 -5.4 22.2 84 -7.7 18.2
03:30 1010 29.83 840 24.81 -5.4 22.2 84 -7.7 18.2
03:35 1011 29.85 840 24.81 -5.4 22.3 86 -7.4 18.7
03:40 1010 29.83 840 24.81 -5.5 22.2 91 -6.8 19.8
03:45 1010 29.83 840 24.81 -5.7 21.7 92 -6.8 19.8
03:50 1010 29.83 839 24.78 -5.8 21.6 92 -6.8 19.7
03:55 1010 29.83 839 24.78 -5.9 21.3 94 -6.8 19.7
04:00 1010 29.83 840 24.81 -5.9 21.4 93 -6.8 19.8
04:05 1011 29.85 840 24.81 -5.8 21.6 93 -6.7 19.9
04:10 1010 29.83 840 24.81 -5.8 21.5 93 -6.8 19.8
04:15 1010 29.83 840 24.81 -5.8 21.5 94 -6.7 19.9
04:20 1010 29.83 839 24.78 -5.9 21.4 93 -6.8 19.7
04:25 1010 29.83 839 24.78 -6.1 21 92 -7.2 19.1
04:30 1010 29.83 839 24.78 -6.1 21 90 -7.5 18.5
04:35 1010 29.83 839 24.78 -5.9 21.4 89 -7.4 18.7
04:40 1010 29.83 839 24.78 -5.8 21.7 89 -7.3 18.9
04:45 1010 29.83 839 24.78 -5.9 21.4 89 -7.3 18.8
04:50 1010 29.83 839 24.78 -6 21.2 90 -7.3 18.8
04:55 1010 29.83 839 24.78 -6.2 20.8 92 -7.4 18.8
05:00 1010 29.83 839 24.78 -6.3 20.6 92 -7.4 18.6
05:05 1010 29.83 839 24.78 -6.2 20.9 87 -8 17.6
05:10 1010 29.83 839 24.78 -5.2 22.6 83 -7.7 18.2
05:15 1010 29.83 839 24.78 -4.8 23.3 80 -7.8 17.9
05:20 1010 29.83 839 24.78 -4.6 23.8 76 -8.1 17.4
05:25 1010 29.83 839 24.78 -4.6 23.8 72 -8.9 16
05:30 1010 29.83 839 24.78 -4.5 23.9 67 -9.7 14.6
05:35 1010 29.83 839 24.78 -4.4 24.1 65 -9.9 14.1
05:40 1010 29.83 839 24.78 -4.6 23.8 61 -10.9 12.4
05:45 1010 29.83 839 24.78 -4.3 24.3 58 -11.4 11.5
05:50 1010 29.83 839 24.78 -4.1 24.7 55 -11.7 10.9
05:55 1010 29.83 839 24.78 -3.9 24.9 56 -11.4 11.4
06:00 1010 29.83 839 24.78 -3.9 25 56 -11.4 11.5
06:05 1010 29.83 839 24.78 -4 24.8 55 -11.7 11
06:10 1010 29.83 839 24.78 -4.1 24.6 57 -11.4 11.4
06:15 1010 29.83 839 24.78 -4.1 24.6 55 -11.8 10.7
06:20 1010 29.83 839 24.78 -4.1 24.7 56 -11.7 10.9
06:25 1010 29.83 839 24.78 -4.2 24.5 56 -11.7 10.9
06:30 1010 29.83 839 24.78 -4.4 24.1 57 -11.8 10.8
06:35 1010 29.83 839 24.78 -4.6 23.8 58 -11.6 11
06:40 1010 29.83 839 24.78 -4.7 23.5 58 -11.7 10.9
06:45 1010 29.83 839 24.78 -4.8 23.4 58 -11.8 10.8
06:50 1010 29.83 839 24.78 -4.7 23.5 58 -11.9 10.6
06:55 1010 29.83 839 24.78 -4.7 23.6 58 -11.7 10.9
07:00 1010 29.83 839 24.78 -4.7 23.5 60 -11.5 11.4
07:05 1010 29.83 839 24.78 -5 23.1 60 -11.6 11.1
07:10 1010 29.83 840 24.81 -5.1 22.9 61 -11.5 11.2
07:15 1011 29.85 840 24.81 -5.1 22.9 60 -11.6 11.1
07:20 1011 29.85 840 24.81 -5 22.9 60 -11.6 11.1
07:25 1011 29.85 840 24.81 -5 23 60 -11.7 11
07:30 1011 29.85 840 24.81 -5 22.9 60 -11.6 11
07:35 1011 29.85 840 24.81 -5.1 22.9 58 -12 10.3
07:40 1011 29.85 840 24.81 -5.1 22.9 57 -12.3 9.8
07:45 1011 29.85 840 24.81 -5.2 22.6 58 -12.2 10
07:50 1011 29.85 840 24.81 -5.3 22.4 56 -12.7 9.1
07:55 1011 29.85 840 24.81 -5.2 22.6 57 -12.5 9.4
08:00 1011 29.85 840 24.81 -5.1 22.9 54 -13 8.7
08:05 1011 29.85 840 24.81 -4.9 23.2 54 -12.8 8.9
08:10 1011 29.85 840 24.81 -4.9 23.1 54 -12.8 8.9
08:15 1011 29.85 840 24.81 -5 23 55 -12.7 9.2
08:20 1011 29.85 840 24.81 -5.2 22.7 54 -13 8.6
08:25 1011 29.85 840 24.81 -5.2 22.7 53 -13.3 8
08:30 1011 29.85 840 24.81 -5.1 22.8 53 -13.3 8.1
08:35 1011 29.85 840 24.81 -5 23 51 -13.6 7.4
08:40 1011 29.85 840 24.81 -4.9 23.1 51 -13.7 7.4
08:45 1011 29.85 840 24.81 -5.1 22.9 50 -13.9 6.9
08:50 1011 29.85 840 24.81 -5.1 22.9 50 -14 6.8
08:55 1011 29.85 840 24.81 -5.1 22.8 50 -14 6.8
09:00 1011 29.85 840 24.81 -5.2 22.7 50 -13.9 6.9
09:05 1011 29.85 840 24.81 -5.1 22.8 51 -13.7 7.3
09:10 1011 29.85 840 24.81 -5 22.9 52 -13.6 7.6
09:15 1011 29.85 840 24.81 -5 23 52 -13.5 7.6
09:20 1011 29.85 840 24.81 -4.9 23.2 50 -13.9 7
09:25 1011 29.85 840 24.81 -4.9 23.2 50 -13.8 7.1
09:30 1011 29.85 840 24.81 -4.7 23.5 50 -13.6 7.5
09:35 1011 29.85 840 24.81 -4.7 23.5 51 -13.3 8.1
09:40 1011 29.85 840 24.81 -4.6 23.7 50 -13.4 7.8
09:45 1011 29.85 840 24.81 -4.6 23.8 51 -13.1 8.3
09:50 1011 29.85 840 24.81 -4.6 23.8 49 -13.8 7.1
09:55 1011 29.85 841 24.83 -4.5 23.9 49 -13.6 7.4
10:00 1011 29.85 841 24.83 -4.3 24.2 47 -14 6.8
10:05 1012 29.88 841 24.83 -4.3 24.3 48 -13.8 7.2
10:10 1012 29.88 841 24.83 -4.2 24.4 47 -13.9 7
10:15 1012 29.88 841 24.83 -4.1 24.6 47 -13.9 7
10:20 1012 29.88 841 24.83 -4 24.8 45 -14.2 6.4
10:25 1012 29.88 841 24.83 -4 24.8 46 -14 6.9
10:30 1012 29.88 841 24.83 -4 24.8 47 -13.8 7.1
10:35 1012 29.88 841 24.83 -3.8 25.2 45 -14.1 6.7
10:40 1012 29.88 841 24.83 -3.4 25.8 44 -14.1 6.6
10:45 1012 29.88 841 24.83 -3.2 26.3 43 -14.1 6.6
10:50 1012 29.88 841 24.83 -3.5 25.8 42 -14.6 5.7
10:55 1012 29.88 841 24.83 -3.3 26.2 45 -13.6 7.4
11:00 1012 29.88 841 24.83 -3.4 25.9 42 -14.5 5.9
11:05 1012 29.88 842 24.86 -3.6 25.4 45 -13.9 7.1
11:10 1012 29.88 842 24.86 -3.6 25.6 44 -14.1 6.6
11:15 1012 29.88 842 24.86 -3.6 25.5 43 -14.5 6
11:20 1012 29.88 842 24.86 -3.5 25.7 46 -13.6 7.5
11:25 1012 29.88 842 24.86 -3.3 26 43 -14.1 6.6
11:30 1012 29.88 842 24.86 -3.3 26 44 -13.9 7
11:35 1012 29.88 842 24.86 -3.2 26.3 44 -13.9 7
11:40 1012 29.88 842 24.86 -3.1 26.4 44 -13.8 7.1
11:45 1012 29.88 842 24.86 -2.9 26.8 41 -14.4 6.1
11:50 1012 29.88 842 24.86 -2.8 26.9 39 -15.1 4.9
11:55 1013 29.91 842 24.86 -2.7 27.1 38 -15.2 4.6
12:00 1013 29.91 842 24.86 -2.6 27.4 35 -15.9 3.4
12:05 1013 29.91 842 24.86 -2.7 27.2 37 -15.4 4.3
12:10 1013 29.91 842 24.86 -2.6 27.3 38 -15 5.1
12:15 1013 29.91 842 24.86 -2.4 27.7 40 -14.4 6.1
12:20 1013 29.91 842 24.86 -2.4 27.7 39 -14.6 5.8
12:25 1013 29.91 842 24.86 -2.6 27.4 37 -15.2 4.6
12:30 1013 29.91 842 24.86 -2.7 27.2 39 -14.8 5.4
12:35 1013 29.91 842 24.86 -2.7 27.2 39 -14.9 5.2
12:40 1013 29.91 842 24.86 -2.6 27.3 38 -15.1 4.8
12:45 1013 29.91 842 24.86 -2.8 27 38 -15.3 4.5
12:50 1013 29.91 842 24.86 -2.7 27.2 38 -15.2 4.6
12:55 1013 29.91 842 24.86 -2.5 27.4 40 -14.4 6.1
13:00 1013 29.91 842 24.86 -2.2 28 38 -14.6 5.7
13:05 1013 29.91 842 24.86 -1.9 28.6 39 -14.2 6.4
13:10 1013 29.91 842 24.86 -2 28.5 41 -13.6 7.5
13:15 1013 29.91 842 24.86 -1.7 28.9 40 -13.5 7.7
13:20 1013 29.91 842 24.86 -1.4 29.5 38 -13.9 7
13:25 1013 29.91 842 24.86 -1.4 29.4 38 -13.8 7.1
13:30 1013 29.91 842 24.86 -1.2 29.8 37 -14.1 6.6
13:35 1013 29.91 842 24.86 -0.7 30.7 32 -15.3 4.4
13:40 1013 29.91 842 24.86 -0.3 31.5 32 -15 4.9
13:45 1012 29.88 842 24.86 -0.2 31.7 32 -14.9 5.2
13:50 1012 29.88 842 24.86 -0.8 30.5 32 -15.6 3.9
13:55 1012 29.88 842 24.86 -0.7 30.8 35 -14.5 5.9
14:00 1012 29.88 842 24.86 -0 31.9 32 -14.9 5.1
14:05 1012 29.88 842 24.86 0.1 32.1 32 -14.8 5.4
14:10 1012 29.88 842 24.86 -0.7 30.8 33 -15.1 4.8
14:15 1012 29.88 842 24.86 -1 30.2 34 -15.1 4.8
14:20 1012 29.88 842 24.86 -1 30.3 33 -15.3 4.5
14:25 1012 29.88 841 24.83 -0.4 31.3 34 -14.4 6.1
14:30 1012 29.88 841 24.83 -0.4 31.3 34 -14.3 6.3
14:35 1012 29.88 841 24.83 -0.9 30.4 37 -14 6.8
14:40 1012 29.88 842 24.86 -1.4 29.4 37 -14.3 6.3
14:45 1012 29.88 842 24.86 -1.7 28.9 39 -13.9 7
14:50 1012 29.88 842 24.86 -2.1 28.2 39 -14.3 6.3
14:55 1012 29.88 842 24.86 -2.3 27.8 39 -14.5 5.9
15:00 1012 29.88 842 24.86 -2.2 28.1 40 -14 6.8
15:05 1012 29.88 842 24.86 -1.8 28.8 40 -13.7 7.4
15:10 1012 29.88 842 24.86 -1.5 29.2 40 -13.5 7.7
15:15 1013 29.91 842 24.86 -1.8 28.8 41 -13.3 8.1
15:20 1013 29.91 842 24.86 -2.1 28.2 41 -13.6 7.5
15:25 1013 29.91 842 24.86 -2 28.3 40 -14 6.7
15:30 1013 29.91 842 24.86 -2 28.4 42 -13.3 8
15:35 1013 29.91 842 24.86 -2.1 28.2 42 -13.4 7.8
15:40 1013 29.91 842 24.86 -2.2 28.1 42 -13.5 7.8
15:45 1013 29.91 842 24.86 -2.1 28.3 41 -13.7 7.3
15:50 1013 29.91 842 24.86 -1.9 28.6 41 -13.4 7.9
15:55 1013 29.91 842 24.86 -2.1 28.1 42 -13.5 7.6
16:00 1013 29.91 842 24.86 -2.2 28 43 -13.2 8.3
16:05 1013 29.91 842 24.86 -2.2 28.1 43 -13.3 8.1
16:10 1013 29.91 842 24.86 -2.3 27.9 45 -12.8 9
16:15 1013 29.91 842 24.86 -2.5 27.5 45 -12.8 8.9
16:20 1013 29.91 842 24.86 -2.8 27 48 -12.3 9.9
16:25 1013 29.91 842 24.86 -3 26.6 50 -12.1 10.3
16:30 1013 29.91 842 24.86 -3 26.5 50 -12 10.4
16:35 1013 29.91 842 24.86 -3 26.6 50 -11.9 10.5
16:40 1013 29.91 842 24.86 -3.2 26.2 51 -11.9 10.5
16:45 1013 29.91 842 24.86 -3.3 26.1 51 -12.1 10.3
16:50 1013 29.91 842 24.86 -3.4 25.8 52 -12 10.5
16:55 1013 29.91 842 24.86 -3.5 25.7 51 -12.3 9.8
17:00 1013 29.91 843 24.89 -3.5 25.7 52 -12.1 10.3
17:05 1013 29.91 843 24.89 -3.6 25.6 52 -12.1 10.2
17:10 1014 29.94 843 24.89 -3.7 25.4 52 -12.2 10.1
17:15 1014 29.94 843 24.89 -3.7 25.3 53 -12.1 10.3
17:20 1014 29.94 843 24.89 -3.9 25.1 53 -12.2 10.1
17:25 1014 29.94 843 24.89 -4.1 24.7 53 -12.2 10
17:30 1014 29.94 843 24.89 -4.2 24.5 52 -12.6 9.3
17:35 1014 29.94 843 24.89 -4.1 24.6 52 -12.5 9.5
17:40 1014 29.94 843 24.89 -4.1 24.5 51 -12.8 9
17:45 1014 29.94 843 24.89 -4.1 24.5 51 -12.9 8.7
17:50 1014 29.94 843 24.89 -4.1 24.7 51 -12.7 9.1
17:55 1014 29.94 843 24.89 -4.1 24.6 51 -12.7 9.1
18:00 1014 29.94 843 24.89 -4 24.8 51 -12.8 9
18:05 1014 29.94 843 24.89 -4 24.9 50 -13 8.5
18:10 1014 29.94 843 24.89 -3.9 25 49 -13.1 8.5
18:15 1014 29.94 843 24.89 -3.9 24.9 49 -13.1 8.4
18:20 1014 29.94 843 24.89 -3.9 25 49 -13.2 8.2
18:25 1014 29.94 843 24.89 -3.9 25 51 -12.6 9.3
18:30 1014 29.94 843 24.89 -4 24.9 51 -12.7 9.2
18:35 1014 29.94 843 24.89 -4.1 24.7 51 -12.8 8.9
18:40 1014 29.94 843 24.89 -4.2 24.5 52 -12.7 9.1
18:45 1014 29.94 843 24.89 -4.3 24.3 51 -13.1 8.5
18:50 1014 29.94 843 24.89 -4.4 24 51 -13 8.5
18:55 1014 29.94 843 24.89 -4.6 23.7 52 -13 8.6
19:00 1014 29.94 843 24.89 -4.8 23.4 52 -13.2 8.2
19:05 1014 29.94 843 24.89 -4.9 23.2 51 -13.5 7.8
19:10 1014 29.94 843 24.89 -5 23 52 -13.3 8
19:15 1014 29.94 844 24.92 -4.9 23.1 52 -13.4 7.9
19:20 1014 29.94 844 24.92 -4.8 23.3 52 -13.3 8
19:25 1015 29.97 844 24.92 -5 23.1 52 -13.3 8.1
19:30 1014 29.94 844 24.92 -5.1 22.7 53 -13.2 8.2
19:35 1014 29.94 844 24.92 -5.1 22.7 52 -13.5 7.8
19:40 1014 29.94 844 24.92 -5 23 52 -13.5 7.6
19:45 1014 29.94 844 24.92 -5 23.1 51 -13.7 7.4
19:50 1015 29.97 844 24.92 -4.9 23.1 51 -13.6 7.5
19:55 1015 29.97 844 24.92 -5 23 52 -13.5 7.7
20:00 1014 29.94 844 24.92 -5 22.9 51 -13.7 7.3
20:05 1014 29.94 844 24.92 -4.8 23.4 51 -13.5 7.6
20:10 1014 29.94 844 24.92 -4.7 23.5 50 -13.6 7.4
20:15 1014 29.94 844 24.92 -4.7 23.5 50 -13.6 7.4
20:20 1014 29.94 843 24.89 -4.9 23.2 51 -13.6 7.5
20:25 1014 29.94 843 24.89 -4.9 23.2 50 -13.7 7.4
20:30 1014 29.94 843 24.89 -5 23 51 -13.6 7.6
20:35 1014 29.94 843 24.89 -5.1 22.8 51 -13.9 7
20:40 1014 29.94 843 24.89 -5.2 22.6 51 -13.9 6.9
20:45 1014 29.94 843 24.89 -5.3 22.5 50 -14.1 6.7
20:50 1014 29.94 843 24.89 -5.4 22.3 50 -14.1 6.5
20:55 1014 29.94 843 24.89 -5.2 22.6 49 -14.3 6.2
21:00 1014 29.94 843 24.89 -5.2 22.6 49 -14.3 6.3
21:05 1014 29.94 843 24.89 -5.3 22.4 49 -14.4 6.1
21:10 1014 29.94 843 24.89 -5.3 22.4 50 -14.3 6.3
21:15 1014 29.94 843 24.89 -5.5 22.2 50 -14.2 6.4
21:20 1014 29.94 843 24.89 -5.5 22.1 50 -14.3 6.3
21:25 1014 29.94 843 24.89 -5.6 21.9 51 -14.1 6.6
21:30 1014 29.94 843 24.89 -5.7 21.8 50 -14.4 6
21:35 1014 29.94 843 24.89 -5.5 22 50 -14.4 6
21:40 1014 29.94 843 24.89 -5.5 22 50 -14.4 6.1
21:45 1014 29.94 843 24.89 -5.6 21.9 50 -14.4 6.1
21:50 1014 29.94 843 24.89 -5.3 22.4 48 -14.7 5.6
21:55 1014 29.94 843 24.89 -5.2 22.7 48 -14.6 5.7
22:00 1014 29.94 843 24.89 -5.3 22.5 48 -14.6 5.7
22:05 1014 29.94 843 24.89 -5.2 22.6 48 -14.7 5.6
22:10 1014 29.94 843 24.89 -5.3 22.4 48 -14.8 5.4
22:15 1013 29.91 843 24.89 -5.5 22.2 48 -14.7 5.5
22:20 1013 29.91 843 24.89 -5.5 22.1 49 -14.6 5.7
22:25 1013 29.91 842 24.86 -5.5 22.1 48 -14.8 5.3
22:30 1013 29.91 842 24.86 -5.7 21.8 49 -14.7 5.6
22:35 1013 29.91 842 24.86 -6 21.2 50 -15 5.1
22:40 1013 29.91 842 24.86 -6.1 21 47 -15.6 3.9
22:45 1013 29.91 842 24.86 -5.7 21.7 46 -15.6 3.9
22:50 1013 29.91 842 24.86 -5.7 21.8 48 -15.1 4.8
22:55 1013 29.91 842 24.86 -5.8 21.5 48 -15.2 4.7
23:00 1013 29.91 842 24.86 -5.6 22 47 -15.1 4.7
23:05 1013 29.91 842 24.86 -5.3 22.5 46 -15.1 4.8
23:10 1013 29.91 842 24.86 -5.1 22.7 46 -15 5
23:15 1013 29.91 842 24.86 -5 23 46 -15 5.1
23:20 1013 29.91 842 24.86 -5 23 47 -14.7 5.5
23:25 1013 29.91 842 24.86 -5.1 22.8 47 -14.7 5.6
23:30 1013 29.91 842 24.86 -5.2 22.7 48 -14.5 5.9
23:35 1013 29.91 842 24.86 -5.2 22.7 48 -14.6 5.8
23:40 1013 29.91 842 24.86 -4.9 23.2 47 -14.6 5.8
23:45 1013 29.91 842 24.86 -4.7 23.5 46 -14.6 5.8
23:50 1013 29.91 842 24.86 -4.8 23.4 48 -14.3 6.2
23:55 1012 29.88 842 24.86 -4.9 23.2 48 -14.3 6.2
24:00 1012 29.88 842 24.86 -4.7 23.5 48 -14.1 6.6